Time;durP1;ratioP1;P1;durP2;ratioP2;P2;SDS_P1;SDS_P2;PMS_P1;PMS_P2;Temp;Humidity;BMP_temperature;BMP_pressure;BME280_temperature;BME280_humidity;BME280_pressure;Samples;Min_cycle;Max_cycle;Signal;HPM_P1;HPM_P2
2022/04/02 00:01:33;;;;;;;12.90;11.55;;;1.60;99.90;;;;;;1923074;73;21085;-74
2022/04/02 00:04:01;;;;;;;13.50;11.88;;;1.60;99.90;;;;;;1928170;74;21011;-74
2022/04/02 00:06:28;;;;;;;13.72;12.23;;;1.50;99.90;;;;;;1926949;73;21560;-73
2022/04/02 00:08:55;;;;;;;13.75;12.07;;;1.60;99.90;;;;;;1919465;73;21062;-74
2022/04/02 00:11:23;;;;;;;13.55;12.15;;;1.60;99.90;;;;;;1920365;73;21517;-75
2022/04/02 00:13:50;;;;;;;13.32;11.75;;;1.60;99.90;;;;;;1888833;75;21063;-74
2022/04/02 00:16:18;;;;;;;17.67;12.73;;;1.60;99.90;;;;;;1891013;75;21078;-74
2022/04/02 00:18:45;;;;;;;13.60;12.18;;;1.60;99.90;;;;;;1890940;75;21073;-73
2022/04/02 00:21:12;;;;;;;13.85;11.55;;;1.60;99.90;;;;;;1889342;75;21144;-74
2022/04/02 00:23:40;;;;;;;14.50;11.68;;;1.60;99.90;;;;;;1902618;75;21124;-75
2022/04/02 00:26:09;;;;;;;14.68;12.20;;;1.70;99.90;;;;;;1898817;75;21139;-75
2022/04/02 00:28:37;;;;;;;15.40;11.80;;;1.70;99.90;;;;;;1886624;75;21253;-75
2022/04/02 00:31:05;;;;;;;16.45;12.47;;;1.70;99.90;;;;;;1888629;75;21154;-74
2022/04/02 00:33:32;;;;;;;12.88;11.22;;;1.80;99.90;;;;;;1890027;75;21066;-74
2022/04/02 00:36:00;;;;;;;13.00;11.60;;;1.80;99.90;;;;;;1892101;75;21124;-74
2022/04/02 00:38:27;;;;;;;15.13;11.73;;;1.80;99.90;;;;;;1896742;75;21114;-74
2022/04/02 00:40:54;;;;;;;14.63;11.78;;;1.70;99.90;;;;;;1898226;75;21071;-74
2022/04/02 00:43:25;;;;;;;16.35;11.97;;;1.80;99.90;;;;;;1902850;75;21200;-74
2022/04/02 00:45:53;;;;;;;17.87;13.72;;;1.70;99.90;;;;;;1886525;75;21404;-74
2022/04/02 00:48:21;;;;;;;16.17;12.28;;;1.70;99.90;;;;;;1891205;75;21070;-74
2022/04/02 00:51:08;;;;;;;13.53;11.90;;;1.80;99.90;;;;;;1888213;75;21213;-74
2022/04/02 00:53:40;;;;;;;12.98;11.40;;;1.90;99.90;;;;;;1932652;73;21124;-75
2022/04/02 00:56:07;;;;;;;14.83;11.90;;;1.80;99.90;;;;;;1905428;75;21038;-74
2022/04/02 00:58:34;;;;;;;14.63;12.88;;;1.90;99.90;;;;;;1937786;74;21070;-76
2022/04/02 01:01:03;;;;;;;13.85;11.63;;;1.80;99.90;;;;;;1892991;75;21142;-75
2022/04/02 01:03:30;;;;;;;12.33;11.10;;;1.80;99.90;;;;;;1912535;74;21129;-75
2022/04/02 01:05:57;;;;;;;12.88;11.05;;;1.90;99.90;;;;;;1906208;75;21112;-74
2022/04/02 01:08:25;;;;;;;15.35;11.12;;;1.90;99.90;;;;;;1914712;74;21148;-75
2022/04/02 01:10:54;;;;;;;13.88;11.55;;;1.80;99.90;;;;;;1934021;74;21065;-75
2022/04/02 01:13:22;;;;;;;17.73;12.37;;;1.80;99.90;;;;;;1898660;75;21457;-73
2022/04/02 01:15:50;;;;;;;12.98;11.50;;;1.80;99.90;;;;;;1894060;75;21129;-73
2022/04/02 01:18:17;;;;;;;18.17;12.10;;;1.80;99.90;;;;;;1908035;74;21066;-76
2022/04/02 01:20:45;;;;;;;16.45;11.75;;;1.80;99.90;;;;;;1907683;74;21071;-74
2022/04/02 01:23:12;;;;;;;14.13;11.63;;;1.90;99.90;;;;;;1897223;75;21070;-73
2022/04/02 01:25:39;;;;;;;14.47;12.25;;;1.80;99.90;;;;;;1921297;74;21132;-74
2022/04/02 01:28:07;;;;;;;14.53;12.40;;;1.70;99.90;;;;;;1921669;74;21573;-74
2022/04/02 01:30:34;;;;;;;14.50;11.73;;;1.80;99.90;;;;;;1923635;74;21061;-73
2022/04/02 01:33:01;;;;;;;14.30;11.60;;;1.70;99.90;;;;;;1924665;73;21131;-73
2022/04/02 01:35:29;;;;;;;12.98;11.55;;;1.80;99.90;;;;;;1926997;74;21108;-73
2022/04/02 01:37:56;;;;;;;12.05;10.75;;;1.80;99.90;;;;;;1916744;74;21043;-73
2022/04/02 01:40:23;;;;;;;15.28;11.97;;;1.80;99.90;;;;;;1917515;74;21025;-75
2022/04/02 01:42:51;;;;;;;12.85;11.45;;;1.70;99.90;;;;;;1925908;73;21134;-74
2022/04/02 01:45:18;;;;;;;17.87;13.38;;;1.70;99.90;;;;;;1917898;74;21062;-74
2022/04/02 01:47:46;;;;;;;13.45;11.60;;;1.70;99.90;;;;;;1926729;74;21065;-73
2022/04/02 01:50:13;;;;;;;14.07;11.68;;;1.70;99.90;;;;;;1926001;73;21075;-74
2022/04/02 01:52:41;;;;;;;13.43;11.28;;;1.80;99.90;;;;;;1915920;74;21117;-73
2022/04/02 01:55:08;;;;;;;16.30;12.70;;;1.80;99.90;;;;;;1926112;74;21062;-74
2022/04/02 01:57:37;;;;;;;13.88;10.93;;;1.80;99.90;;;;;;1915134;74;21066;-74
2022/04/02 02:00:05;;;;;;;12.18;10.93;;;1.80;99.90;;;;;;1922686;74;21077;-75
2022/04/02 02:02:33;;;;;;;12.75;10.93;;;1.80;99.90;;;;;;1922150;74;21125;-74
2022/04/02 02:05:00;;;;;;;12.63;10.63;;;1.80;99.90;;;;;;1926730;74;21536;-74
2022/04/02 02:07:27;;;;;;;13.22;10.55;;;1.80;99.90;;;;;;1926983;74;21150;-73
2022/04/02 02:09:57;;;;;;;15.95;10.72;;;1.80;99.90;;;;;;1924934;74;21124;-75
2022/04/02 02:12:24;;;;;;;17.15;10.72;;;1.80;99.90;;;;;;1928363;74;21154;-74
2022/04/02 02:14:52;;;;;;;15.05;10.82;;;1.90;99.90;;;;;;1926792;74;21248;-74
2022/04/02 02:17:19;;;;;;;12.37;10.38;;;1.80;99.90;;;;;;1922304;74;21462;-74
2022/04/02 02:19:46;;;;;;;15.72;10.82;;;1.90;99.90;;;;;;1926843;74;21042;-74
2022/04/02 02:22:14;;;;;;;11.63;9.80;;;1.90;99.90;;;;;;1926000;74;21503;-74
2022/04/02 02:24:42;;;;;;;14.25;10.18;;;1.80;99.90;;;;;;1925706;73;21069;-74
2022/04/02 02:27:10;;;;;;;13.75;10.15;;;1.90;99.90;;;;;;1925597;73;21139;-74
2022/04/02 02:29:37;;;;;;;13.03;9.53;;;1.80;99.90;;;;;;1924086;74;21070;-74
2022/04/02 02:32:05;;;;;;;11.70;9.55;;;1.80;99.90;;;;;;1920136;74;21127;-73
2022/04/02 02:37:17;;;;;;;18.05;9.03;;;1.80;99.90;;;;;;1924587;74;21083;-73
2022/04/02 02:39:44;;;;;;;10.28;8.55;;;1.80;99.90;;;;;;1924494;74;21539;-74
2022/04/02 02:42:12;;;;;;;11.28;8.90;;;1.80;99.90;;;;;;1920479;74;21159;-74
2022/04/02 02:44:39;;;;;;;10.28;8.75;;;1.80;99.90;;;;;;1925678;74;21042;-74
2022/04/02 02:47:07;;;;;;;14.38;9.30;;;1.80;99.90;;;;;;1926285;74;21077;-75
2022/04/02 02:49:34;;;;;;;10.98;8.35;;;1.70;99.90;;;;;;1926328;74;21466;-74
2022/04/02 02:52:01;;;;;;;12.90;9.43;;;1.80;99.90;;;;;;1925903;74;21082;-75
2022/04/02 02:54:29;;;;;;;12.82;9.50;;;1.80;99.90;;;;;;1919211;74;21072;-74
2022/04/02 02:56:56;;;;;;;12.30;8.60;;;1.70;99.90;;;;;;1919099;74;21156;-74
2022/04/02 02:59:23;;;;;;;9.58;8.33;;;1.70;99.90;;;;;;1921834;74;21143;-73
2022/04/02 03:01:51;;;;;;;10.32;8.20;;;1.70;99.90;;;;;;1922000;74;21561;-74
2022/04/02 03:04:18;;;;;;;10.88;8.25;;;1.70;99.90;;;;;;1925612;74;21073;-73
2022/04/02 03:06:45;;;;;;;12.50;8.80;;;1.70;99.90;;;;;;1926991;74;21467;-75
2022/04/02 03:09:13;;;;;;;11.18;7.72;;;1.60;99.90;;;;;;1923478;74;21081;-73
2022/04/02 03:11:40;;;;;;;10.38;8.50;;;1.60;99.90;;;;;;1918610;74;21070;-75
2022/04/02 03:14:07;;;;;;;17.37;8.35;;;1.60;99.90;;;;;;1923491;74;21089;-74
2022/04/02 03:16:34;;;;;;;10.35;7.90;;;1.60;99.90;;;;;;1924356;73;21043;-74
2022/04/02 03:19:02;;;;;;;9.43;7.80;;;1.60;99.90;;;;;;1922080;74;21140;-75
2022/04/02 03:21:29;;;;;;;9.45;8.40;;;1.50;99.90;;;;;;1923093;74;21158;-74
2022/04/02 03:23:57;;;;;;;10.13;7.80;;;1.40;99.90;;;;;;1925965;74;21061;-74
2022/04/02 03:26:26;;;;;;;12.60;8.98;;;1.50;99.90;;;;;;1919770;74;21512;-74
2022/04/02 03:28:53;;;;;;;14.43;8.88;;;1.50;99.90;;;;;;1927957;73;21077;-73
2022/04/02 03:31:22;;;;;;;11.48;8.35;;;1.30;99.90;;;;;;1927370;74;21030;-75
2022/04/02 03:33:50;;;;;;;13.70;8.40;;;1.30;99.90;;;;;;1921516;74;21063;-74
2022/04/02 03:36:18;;;;;;;11.03;8.50;;;1.30;99.90;;;;;;1917499;74;21085;-73
2022/04/02 03:38:45;;;;;;;16.20;8.43;;;1.30;99.90;;;;;;1919907;74;21147;-74
2022/04/02 03:41:13;;;;;;;9.73;7.72;;;1.30;99.90;;;;;;1922094;74;21038;-73
2022/04/02 03:43:40;;;;;;;11.65;7.55;;;1.20;99.90;;;;;;1927781;74;21501;-73
2022/04/02 03:48:53;;;;;;;12.05;8.60;;;1.40;99.90;;;;;;1926485;74;21108;-74
2022/04/02 03:51:21;;;;;;;13.95;8.53;;;1.30;99.90;;;;;;1926198;74;21101;-74
2022/04/02 03:53:48;;;;;;;13.95;7.62;;;1.30;99.90;;;;;;1926040;74;21030;-73
2022/04/02 03:56:15;;;;;;;15.88;7.50;;;1.30;99.90;;;;;;1925936;74;21512;-73
2022/04/02 03:58:43;;;;;;;12.68;7.78;;;1.20;99.90;;;;;;1922663;74;21124;-74
2022/04/02 04:01:10;;;;;;;8.85;7.33;;;1.30;99.90;;;;;;1923685;74;21697;-73
2022/04/02 04:03:37;;;;;;;9.58;7.75;;;1.30;99.90;;;;;;1916397;74;21083;-73
2022/04/02 04:06:04;;;;;;;15.63;7.33;;;1.30;99.90;;;;;;1922384;74;21025;-74
2022/04/02 04:08:32;;;;;;;9.90;7.10;;;1.30;99.90;;;;;;1923618;73;21085;-74
2022/04/02 04:10:59;;;;;;;15.48;8.25;;;1.30;99.90;;;;;;1913047;75;21015;-75
2022/04/02 04:13:26;;;;;;;9.95;7.33;;;1.10;99.90;;;;;;1932120;73;21457;-76
2022/04/02 04:15:54;;;;;;;9.95;7.62;;;1.10;99.90;;;;;;1908117;74;21144;-75
2022/04/02 04:18:21;;;;;;;11.55;7.90;;;1.00;99.90;;;;;;1935075;74;21089;-75
2022/04/02 04:20:49;;;;;;;11.70;7.92;;;1.00;99.90;;;;;;1932212;73;21131;-75
2022/04/02 04:23:17;;;;;;;10.03;7.45;;;1.10;99.90;;;;;;1897097;75;21081;-75
2022/04/02 04:25:45;;;;;;;12.05;7.30;;;1.10;99.90;;;;;;1909230;75;21078;-76
2022/04/02 04:28:12;;;;;;;18.07;7.42;;;1.10;99.90;;;;;;1916193;75;21082;-75
2022/04/02 04:30:39;;;;;;;8.63;6.78;;;1.10;99.90;;;;;;1912058;74;21051;-74
2022/04/02 04:33:07;;;;;;;14.93;8.13;;;1.10;99.90;;;;;;1916254;74;21149;-75
2022/04/02 04:35:34;;;;;;;15.63;7.12;;;1.00;99.90;;;;;;1898432;75;21077;-74
2022/04/02 04:38:02;;;;;;;26.48;8.38;;;1.10;99.90;;;;;;1912247;74;21594;-74
2022/04/02 04:40:29;;;;;;;11.83;6.95;;;0.90;99.90;;;;;;1936592;74;21190;-75
2022/04/02 04:42:56;;;;;;;14.45;7.35;;;0.90;99.90;;;;;;1928930;73;21070;-75
2022/04/02 04:45:24;;;;;;;11.45;7.75;;;0.80;99.90;;;;;;1912168;74;21140;-75
2022/04/02 04:47:51;;;;;;;12.30;7.87;;;0.90;99.90;;;;;;1916250;74;21490;-73
2022/04/02 04:50:19;;;;;;;11.60;7.65;;;1.00;99.90;;;;;;1909469;74;21487;-74
2022/04/02 04:52:46;;;;;;;11.35;7.50;;;0.90;99.90;;;;;;1908070;74;21139;-75
2022/04/02 04:55:13;;;;;;;10.13;7.33;;;0.90;99.90;;;;;;1932848;74;21009;-75
2022/04/02 04:57:41;;;;;;;11.00;6.80;;;0.90;99.90;;;;;;1905540;75;21098;-75
2022/04/02 05:00:08;;;;;;;12.45;7.72;;;0.90;99.90;;;;;;1934257;73;21029;-76
2022/04/02 05:02:36;;;;;;;10.23;7.65;;;0.90;99.90;;;;;;1904462;74;21221;-75
2022/04/02 05:05:03;;;;;;;12.82;7.03;;;0.90;99.90;;;;;;1922891;74;21011;-74
2022/04/02 05:07:32;;;;;;;11.57;7.47;;;0.90;99.90;;;;;;1905259;74;21474;-75
2022/04/02 05:09:59;;;;;;;8.60;6.95;;;0.90;99.90;;;;;;1906114;73;21034;-75
2022/04/02 05:12:27;;;;;;;10.15;7.17;;;0.90;99.90;;;;;;1905317;74;21136;-74
2022/04/02 05:14:54;;;;;;;10.75;7.37;;;1.00;99.90;;;;;;1905738;75;21116;-74
2022/04/02 05:17:21;;;;;;;9.60;7.12;;;1.00;99.90;;;;;;1970609;73;21017;-75
2022/04/02 05:19:49;;;;;;;8.20;6.92;;;1.00;99.90;;;;;;1891551;75;21450;-75
2022/04/02 05:22:16;;;;;;;12.30;7.17;;;1.10;99.90;;;;;;1926679;73;21461;-74
2022/04/02 05:24:44;;;;;;;11.90;6.75;;;1.10;99.90;;;;;;1904712;75;21078;-75
2022/04/02 05:27:11;;;;;;;14.83;8.03;;;1.10;99.90;;;;;;1914184;74;21077;-75
2022/04/02 05:29:38;;;;;;;7.37;6.55;;;1.20;99.90;;;;;;1906095;75;21207;-74
2022/04/02 05:32:07;;;;;;;10.90;6.60;;;1.20;99.90;;;;;;1906197;75;21553;-74
2022/04/02 05:34:34;;;;;;;10.38;6.92;;;1.20;99.90;;;;;;1903845;74;21144;-74
2022/04/02 05:37:01;;;;;;;11.05;7.20;;;1.20;99.90;;;;;;1909599;74;21474;-73
2022/04/02 05:39:29;;;;;;;10.05;6.45;;;1.10;99.90;;;;;;1909949;73;21123;-72
2022/04/02 05:41:57;;;;;;;8.30;7.37;;;1.20;99.90;;;;;;1913985;74;21092;-73
2022/04/02 05:44:24;;;;;;;7.70;6.70;;;1.10;99.90;;;;;;1939123;74;21120;-75
2022/04/02 05:46:52;;;;;;;9.55;6.47;;;1.00;99.90;;;;;;1943059;73;21179;-73
2022/04/02 05:49:19;;;;;;;7.67;6.97;;;1.10;99.90;;;;;;1914717;74;21081;-73
2022/04/02 05:51:46;;;;;;;7.40;6.40;;;1.10;99.90;;;;;;1909572;74;21062;-74
2022/04/02 05:54:14;;;;;;;7.60;6.70;;;1.00;99.90;;;;;;1916310;74;21489;-74
2022/04/02 05:56:42;;;;;;;7.75;6.67;;;1.00;99.90;;;;;;1913423;74;21484;-74
2022/04/02 05:59:09;;;;;;;8.98;6.17;;;1.00;99.90;;;;;;1932099;74;21073;-74
2022/04/02 06:01:37;;;;;;;6.87;6.17;;;1.10;99.90;;;;;;1912884;75;21458;-74
2022/04/02 06:04:04;;;;;;;9.73;6.45;;;1.10;99.90;;;;;;1962456;72;21115;-75
2022/04/02 06:06:31;;;;;;;8.05;6.62;;;1.20;99.90;;;;;;1955796;73;21015;-75
2022/04/02 06:08:59;;;;;;;8.20;6.53;;;1.20;99.90;;;;;;1961170;73;21018;-75
2022/04/02 06:11:26;;;;;;;8.43;7.17;;;1.30;99.90;;;;;;1885676;76;21029;-76
2022/04/02 06:13:53;;;;;;;10.28;7.12;;;1.20;99.90;;;;;;1915420;74;21524;-76
2022/04/02 06:16:21;;;;;;;6.85;6.22;;;1.20;99.90;;;;;;1905683;74;21146;-75
2022/04/02 06:18:48;;;;;;;8.08;6.72;;;1.20;99.90;;;;;;1915143;74;21059;-72
2022/04/02 06:21:15;;;;;;;6.87;6.15;;;1.10;99.90;;;;;;1911668;74;21490;-74
2022/04/02 06:23:42;;;;;;;11.48;7.47;;;1.20;99.90;;;;;;1916043;75;21058;-73
2022/04/02 06:26:10;;;;;;;7.58;6.78;;;1.30;99.90;;;;;;1912769;74;21063;-74
2022/04/02 06:28:38;;;;;;;6.17;5.58;;;1.40;99.90;;;;;;1915584;74;21055;-76
2022/04/02 06:31:06;;;;;;;10.40;5.70;;;1.40;99.90;;;;;;1916348;74;21039;-74
2022/04/02 06:33:33;;;;;;;8.50;6.05;;;1.40;99.90;;;;;;1916278;74;21177;-74
2022/04/02 06:36:01;;;;;;;6.22;5.62;;;1.40;99.90;;;;;;1953655;72;21114;-73
2022/04/02 06:38:28;;;;;;;8.23;5.50;;;1.40;99.90;;;;;;1960752;73;21434;-75
2022/04/02 06:40:55;;;;;;;6.55;5.60;;;1.50;99.90;;;;;;1961480;72;21131;-76
2022/04/02 06:43:22;;;;;;;5.67;5.10;;;1.50;99.90;;;;;;1892023;75;21544;-74
2022/04/02 06:45:50;;;;;;;15.83;5.95;;;1.50;99.90;;;;;;1926256;73;21064;-75
2022/04/02 06:48:17;;;;;;;8.45;6.62;;;1.50;99.90;;;;;;1913675;74;21128;-74
2022/04/02 06:50:44;;;;;;;6.33;5.65;;;1.60;99.90;;;;;;1907710;74;21204;-75
2022/04/02 06:53:12;;;;;;;6.85;5.60;;;1.60;99.90;;;;;;1904209;74;21092;-74
2022/04/02 06:55:40;;;;;;;5.60;5.03;;;1.60;99.90;;;;;;1913562;74;21526;-75
2022/04/02 06:58:08;;;;;;;6.97;5.10;;;1.50;99.90;;;;;;1906327;75;21540;-73
2022/04/02 07:00:36;;;;;;;7.25;5.35;;;1.50;99.90;;;;;;1906255;75;21120;-74
2022/04/02 07:03:04;;;;;;;12.93;5.30;;;1.40;99.90;;;;;;1914410;74;21089;-73
2022/04/02 07:05:31;;;;;;;10.65;5.37;;;1.40;99.90;;;;;;1921045;74;21485;-74
2022/04/02 07:07:59;;;;;;;6.03;5.12;;;1.40;99.90;;;;;;1914185;74;21054;-74
2022/04/02 07:10:26;;;;;;;5.78;4.97;;;1.50;99.90;;;;;;1937032;74;21136;-77
2022/04/02 07:12:53;;;;;;;6.92;5.35;;;1.60;99.90;;;;;;1936862;73;21202;-71
2022/04/02 07:15:21;;;;;;;5.33;4.83;;;1.60;99.90;;;;;;1941775;73;21139;-73
2022/04/02 07:17:48;;;;;;;7.62;5.33;;;1.60;99.90;;;;;;1905216;74;21507;-74
2022/04/02 07:20:19;;;;;;;8.15;4.90;;;1.60;99.90;;;;;;1905064;75;21032;-74
2022/04/02 07:22:46;;;;;;;5.67;4.85;;;1.60;99.90;;;;;;1912627;74;21072;-74
2022/04/02 07:25:13;;;;;;;5.85;4.87;;;1.60;99.90;;;;;;1906038;74;21078;-75
2022/04/02 07:27:41;;;;;;;6.35;5.25;;;1.50;99.90;;;;;;1935097;74;21151;-75
2022/04/02 07:30:10;;;;;;;6.70;5.12;;;1.70;99.90;;;;;;1925691;73;21061;-75
2022/04/02 07:32:38;;;;;;;5.35;4.75;;;1.80;99.90;;;;;;1907075;74;21084;-75
2022/04/02 07:35:06;;;;;;;9.95;5.22;;;1.70;99.90;;;;;;1908930;74;21064;-74
2022/04/02 07:38:00;;;;;;;5.67;4.97;;;1.60;99.90;;;;;;1905318;75;21100;-75
2022/04/02 07:40:30;;;;;;;6.95;5.62;;;1.60;99.90;;;;;;1932931;72;21130;-75
2022/04/02 07:43:20;;;;;;;6.00;5.37;;;1.60;99.90;;;;;;1906387;75;21102;-75
2022/04/02 07:45:47;;;;;;;;;;;1.70;99.90;;;;;;1917824;74;21133;-75
2022/04/02 07:48:15;;;;;;;7.28;5.35;;;1.70;99.90;;;;;;1916705;74;20110;-74
2022/04/02 07:50:44;;;;;;;6.55;5.33;;;1.80;99.90;;;;;;1906179;75;21411;-75
2022/04/02 07:53:21;;;;;;;9.68;6.22;;;1.80;99.90;;;;;;1905426;75;21078;-73
2022/04/02 07:56:00;;;;;;;5.62;5.03;;;1.80;99.90;;;;;;1930165;73;21130;-74
2022/04/02 07:58:33;;;;;;;6.97;5.45;;;1.80;99.90;;;;;;1892370;76;21119;-75
2022/04/02 08:01:04;;;;;;;7.47;5.00;;;1.70;99.90;;;;;;1925976;74;21458;-73
2022/04/02 08:03:32;;;;;;;5.67;5.17;;;1.80;99.90;;;;;;1903166;75;21140;-78
2022/04/02 08:05:59;;;;;;;6.90;5.30;;;1.80;99.90;;;;;;1906291;75;21011;-74
2022/04/02 08:08:27;;;;;;;6.87;5.50;;;1.70;99.90;;;;;;1916971;74;21069;-73
2022/04/02 08:10:56;;;;;;;6.72;4.80;;;1.80;99.90;;;;;;1918215;74;21455;-73
2022/04/02 08:13:24;;;;;;;6.92;5.28;;;2.00;99.90;;;;;;1907290;73;21575;-74
2022/04/02 08:15:54;;;;;;;6.92;5.72;;;1.70;99.90;;;;;;1905583;74;21041;-75
2022/04/02 08:18:22;;;;;;;6.33;5.53;;;1.60;99.90;;;;;;1916629;74;21564;-81
2022/04/02 08:20:50;;;;;;;5.97;5.37;;;1.80;99.90;;;;;;1929466;73;21119;-76
2022/04/02 08:23:17;;;;;;;7.22;5.10;;;2.00;99.90;;;;;;1905213;74;21075;-76
2022/04/02 08:26:05;;;;;;;6.05;5.17;;;2.00;99.90;;;;;;1907148;74;21147;-74
2022/04/02 08:28:57;;;;;;;5.62;5.12;;;2.00;99.90;;;;;;1933317;74;21061;-74
2022/04/02 08:31:29;;;;;;;7.90;4.92;;;1.80;99.90;;;;;;1892906;76;21502;-74
2022/04/02 08:33:59;;;;;;;7.45;4.92;;;1.70;99.90;;;;;;1905020;74;21087;-74
2022/04/02 08:36:30;;;;;;;9.70;5.12;;;1.80;99.90;;;;;;1925776;73;21095;-74
2022/04/02 08:39:06;;;;;;;7.05;5.03;;;1.80;99.90;;;;;;1925965;74;21484;-73
2022/04/02 08:42:11;;;;;;;4.67;4.27;;;1.80;99.90;;;;;;1908785;74;21110;-72
2022/04/02 08:45:04;;;;;;;8.35;5.45;;;1.80;99.90;;;;;;1924707;73;21110;-77
2022/04/02 08:48:03;;;;;;;5.22;4.58;;;1.80;99.90;;;;;;1906276;75;21458;-77
2022/04/02 08:50:36;;;;;;;5.53;4.97;;;1.90;99.90;;;;;;1924979;73;21111;-72
2022/04/02 08:53:25;;;;;;;5.17;4.67;;;1.70;99.90;;;;;;1906169;75;21498;-73
2022/04/02 08:55:58;;;;;;;8.85;4.72;;;1.80;99.90;;;;;;1859050;76;21081;-73
2022/04/02 08:58:28;;;;;;;8.33;4.90;;;1.70;99.90;;;;;;1919891;74;21126;-74
2022/04/02 09:00:58;;;;;;;6.12;4.67;;;1.70;99.90;;;;;;1940027;72;20991;-72
2022/04/02 09:03:41;;;;;;;6.30;4.30;;;1.90;99.90;;;;;;1926668;73;21449;-72
2022/04/02 09:06:23;;;;;;;4.75;4.35;;;2.00;99.90;;;;;;1929239;73;21440;-73
2022/04/02 09:08:57;;;;;;;6.65;5.08;;;1.70;99.90;;;;;;1902629;74;21049;-73
2022/04/02 09:11:29;;;;;;;9.48;5.20;;;1.50;99.90;;;;;;1903559;74;21076;-73
2022/04/02 09:14:16;;;;;;;5.92;5.30;;;1.60;99.90;;;;;;1930213;73;21109;-72
2022/04/02 09:16:55;;;;;;;7.85;5.47;;;1.60;99.90;;;;;;1938333;73;21203;-72
2022/04/02 09:19:45;;;;;;;6.50;5.47;;;1.80;99.90;;;;;;1905294;74;21065;-72
2022/04/02 09:22:33;;;;;;;6.25;5.00;;;1.80;99.90;;;;;;1908548;74;21155;-72
2022/04/02 09:25:20;;;;;;;7.17;5.10;;;1.90;99.90;;;;;;1907406;74;21031;-79
2022/04/02 09:28:09;;;;;;;6.35;4.90;;;1.90;99.90;;;;;;1905850;74;21072;-79
2022/04/02 09:31:00;;;;;;;11.73;6.55;;;1.90;99.90;;;;;;1906974;74;21140;-72
2022/04/02 09:33:53;;;;;;;5.28;4.75;;;1.80;99.90;;;;;;1905551;75;21484;-72
2022/04/02 09:36:46;;;;;;;6.92;5.47;;;1.70;99.90;;;;;;1937171;74;21038;-73
2022/04/02 09:39:32;;;;;;;8.15;5.30;;;1.60;99.90;;;;;;1927154;74;21165;-75
2022/04/02 09:42:11;;;;;;;6.85;5.70;;;1.70;99.90;;;;;;1885837;74;21057;-74
2022/04/02 09:45:01;;;;;;;7.45;5.45;;;1.80;99.90;;;;;;1907210;74;21143;-75
2022/04/02 09:47:40;;;;;;;7.87;5.47;;;1.80;99.90;;;;;;1915365;74;21157;-76
2022/04/02 09:50:10;;;;;;;6.75;6.10;;;1.70;99.90;;;;;;1912694;74;21069;-73
2022/04/02 09:52:46;;;;;;;6.22;5.62;;;1.80;99.90;;;;;;1905459;74;21075;-72
2022/04/02 09:55:15;;;;;;;7.55;6.22;;;1.70;99.90;;;;;;1911421;74;21518;-72
2022/04/02 09:58:20;;;;;;;10.20;6.65;;;1.80;99.90;;;;;;1937648;74;21122;-71
2022/04/02 10:01:08;;;;;;;7.80;6.72;;;1.90;99.90;;;;;;1927589;73;21401;-73
2022/04/02 10:04:01;;;;;;;8.80;6.42;;;2.00;99.90;;;;;;1916996;74;21139;-71
2022/04/02 10:06:36;;;;;;;6.72;5.80;;;2.00;99.90;;;;;;1914411;74;21143;-72
2022/04/02 10:11:59;;;;;;;7.83;6.55;;;2.00;99.90;;;;;;1903851;75;21156;-71
2022/04/02 10:14:29;;;;;;;8.80;6.90;;;2.10;99.90;;;;;;1858073;76;21123;-71
2022/04/02 10:16:58;;;;;;;7.60;6.73;;;2.20;99.90;;;;;;1857753;77;21090;-72
2022/04/02 10:19:30;;;;;;;8.98;6.55;;;2.00;99.90;;;;;;1866027;76;21104;-74
2022/04/02 10:22:01;;;;;;;6.03;5.53;;;1.90;99.90;;;;;;1857757;77;21093;-72
2022/04/02 10:24:28;;;;;;;7.47;6.78;;;1.80;99.90;;;;;;1899598;75;21080;-70
2022/04/02 10:26:57;;;;;;;9.53;6.87;;;1.80;99.90;;;;;;1872382;77;21112;-71
2022/04/02 10:29:32;;;;;;;9.70;7.45;;;1.90;99.90;;;;;;1871121;76;21083;-71
2022/04/02 10:32:19;;;;;;;9.68;6.85;;;2.00;99.90;;;;;;1884864;73;21159;-74
2022/04/02 10:34:49;;;;;;;9.40;6.05;;;2.10;99.90;;;;;;1875220;76;21090;-74
2022/04/02 10:37:19;;;;;;;7.58;6.80;;;2.00;99.90;;;;;;1881982;76;21086;-73
2022/04/02 10:39:49;;;;;;;8.33;6.53;;;2.00;99.90;;;;;;1871595;76;21124;-71
2022/04/02 10:42:18;;;;;;;7.67;6.72;;;2.00;99.90;;;;;;1901217;75;21498;-72
2022/04/02 10:44:48;;;;;;;10.98;7.10;;;2.00;99.90;;;;;;1910179;74;21026;-71
2022/04/02 10:47:16;;;;;;;11.78;7.00;;;2.10;99.90;;;;;;1862125;76;21095;-72
2022/04/02 10:49:44;;;;;;;12.15;7.42;;;2.10;99.90;;;;;;1871872;76;21176;-72
2022/04/02 10:52:13;;;;;;;7.75;6.83;;;2.10;99.90;;;;;;1900185;75;21089;-71
2022/04/02 10:54:41;;;;;;;7.00;6.30;;;2.00;99.90;;;;;;1903400;75;21062;-72
2022/04/02 10:57:08;;;;;;;7.37;6.67;;;1.90;99.90;;;;;;1860121;76;21068;-71
2022/04/02 10:59:36;;;;;;;9.45;6.78;;;1.90;99.90;;;;;;1872238;77;21136;-72
2022/04/02 11:02:03;;;;;;;8.80;6.33;;;2.00;99.90;;;;;;1871023;76;21080;-73
2022/04/02 11:04:46;;;;;;;8.15;7.28;;;2.00;99.90;;;;;;1902545;75;21148;-73
2022/04/02 11:07:13;;;;;;;8.58;7.22;;;2.10;99.90;;;;;;1894367;74;21153;-72
2022/04/02 11:09:41;;;;;;;10.43;6.87;;;2.30;99.90;;;;;;1831423;77;21093;-72
2022/04/02 11:12:11;;;;;;;9.60;7.12;;;2.40;99.90;;;;;;1895842;75;21032;-71
2022/04/02 11:14:39;;;;;;;9.33;6.42;;;2.50;99.90;;;;;;1871371;76;21090;-70
2022/04/02 11:17:07;;;;;;;9.18;6.70;;;2.40;99.90;;;;;;1872738;77;21050;-71
2022/04/02 11:19:56;;;;;;;8.10;6.85;;;2.40;99.90;;;;;;1883448;76;21273;-71
2022/04/02 11:22:30;;;;;;;7.25;6.55;;;2.40;99.90;;;;;;1872443;76;21164;-71
2022/04/02 11:25:03;;;;;;;8.28;7.30;;;2.30;99.90;;;;;;1866663;76;21059;-70
2022/04/02 11:27:30;;;;;;;8.63;6.72;;;2.20;99.90;;;;;;1872672;76;21066;-71
2022/04/02 11:30:01;;;;;;;8.55;7.33;;;2.30;99.90;;;;;;1878897;76;21144;-71
2022/04/02 11:32:29;;;;;;;10.10;7.60;;;2.00;99.90;;;;;;1902666;75;21159;-71
2022/04/02 11:34:57;;;;;;;10.30;7.42;;;1.60;99.90;;;;;;1898185;75;21115;-71
2022/04/02 11:37:30;;;;;;;8.75;7.17;;;1.60;99.90;;;;;;1866870;76;21206;-72
2022/04/02 11:40:00;;;;;;;10.55;8.45;;;1.80;99.90;;;;;;1891133;76;21217;-71
2022/04/02 11:42:27;;;;;;;9.43;8.08;;;1.90;99.90;;;;;;1882256;75;21011;-71
2022/04/02 11:44:55;;;;;;;10.13;8.38;;;1.90;99.90;;;;;;1882048;76;21073;-71
2022/04/02 11:47:30;;;;;;;15.08;9.18;;;1.90;99.90;;;;;;1872702;76;21085;-70
2022/04/02 11:50:06;;;;;;;8.53;7.37;;;2.10;99.90;;;;;;1881225;76;21059;-72
2022/04/02 11:52:50;;;;;;;15.10;9.08;;;2.10;99.90;;;;;;1873861;76;21565;-71
2022/04/02 11:55:18;;;;;;;9.68;7.83;;;2.20;99.90;;;;;;1881849;76;21091;-71
2022/04/02 11:57:57;;;;;;;9.25;7.78;;;2.30;99.90;;;;;;1882241;75;21074;-73
2022/04/02 12:00:28;;;;;;;8.63;7.42;;;2.20;99.90;;;;;;1875742;74;21038;-72
2022/04/02 12:02:55;;;;;;;8.45;7.65;;;2.10;99.90;;;;;;1857818;77;21566;-71
2022/04/02 12:05:25;;;;;;;10.40;7.92;;;2.20;99.90;;;;;;1861042;76;21055;-71
2022/04/02 12:07:52;;;;;;;12.63;7.45;;;2.00;99.90;;;;;;1856674;77;21103;-71
2022/04/02 12:10:25;;;;;;;11.05;8.08;;;2.00;99.90;;;;;;1857995;77;21041;-72
2022/04/02 12:12:54;;;;;;;9.73;7.80;;;2.10;99.90;;;;;;1857817;77;21143;-73
2022/04/02 12:15:22;;;;;;;10.05;7.62;;;2.20;99.90;;;;;;1857714;77;21501;-71
2022/04/02 12:17:51;;;;;;;8.58;7.33;;;2.30;99.90;;;;;;1857682;77;21592;-72
2022/04/02 12:20:19;;;;;;;12.37;7.85;;;2.20;99.90;;;;;;1857877;77;21180;-72
2022/04/02 12:22:47;;;;;;;9.03;7.55;;;2.10;99.90;;;;;;1828587;77;21097;-73
2022/04/02 12:25:21;;;;;;;9.15;7.58;;;2.40;99.90;;;;;;1857446;77;21219;-72
2022/04/02 12:27:51;;;;;;;9.83;7.40;;;2.30;99.90;;;;;;1895123;75;21049;-73
2022/04/02 12:30:23;;;;;;;10.78;7.60;;;2.40;99.90;;;;;;1872469;77;21024;-74
2022/04/02 12:32:50;;;;;;;10.23;7.53;;;2.40;99.90;;;;;;1881966;76;21486;-79
2022/04/02 12:35:27;;;;;;;10.70;7.65;;;2.40;99.90;;;;;;1881824;76;21062;-73
2022/04/02 12:37:56;;;;;;;11.65;8.45;;;2.20;99.90;;;;;;1873807;76;21125;-73
2022/04/02 12:40:28;;;;;;;9.23;8.08;;;2.00;99.90;;;;;;1872352;76;21211;-73
2022/04/02 12:42:57;;;;;;;11.00;8.55;;;2.10;99.90;;;;;;1871912;76;21133;-73
2022/04/02 12:45:25;;;;;;;8.90;7.53;;;2.20;99.90;;;;;;1901433;75;21105;-73
2022/04/02 12:47:57;;;;;;;9.70;7.72;;;2.20;99.90;;;;;;1874049;76;21089;-73
2022/04/02 12:50:25;;;;;;;13.58;8.58;;;2.00;99.90;;;;;;1891287;75;21014;-74
2022/04/02 12:52:52;;;;;;;10.23;8.13;;;2.10;99.90;;;;;;1873547;76;21167;-72
2022/04/02 12:55:25;;;;;;;9.33;8.33;;;2.20;99.90;;;;;;1877045;76;21113;-77
2022/04/02 12:58:05;;;;;;;10.45;8.78;;;2.20;99.90;;;;;;1871691;75;21048;-74
2022/04/02 13:00:37;;;;;;;10.68;8.25;;;2.10;99.90;;;;;;1871485;76;21094;-74
2022/04/02 13:03:05;;;;;;;13.00;9.90;;;2.10;99.90;;;;;;1881838;76;21066;-74
2022/04/02 13:05:44;;;;;;;18.75;9.28;;;1.90;99.90;;;;;;1871209;76;21492;-73
2022/04/02 13:08:29;;;;;;;11.12;9.83;;;2.00;99.90;;;;;;1877818;76;21155;-74
2022/04/02 13:11:00;;;;;;;13.95;10.35;;;2.10;99.90;;;;;;1872419;76;21459;-72
2022/04/02 13:13:39;;;;;;;13.55;10.38;;;2.00;99.90;;;;;;1881364;76;21071;-74
2022/04/02 13:16:09;;;;;;;11.55;9.08;;;2.10;99.90;;;;;;1872119;76;21159;-74